sensor_id;sensor_type;location;lat;lon;timestamp;temperature;humidity
9760;DHT22;4919;48.792;9.202;2023-04-15T00:01:40;8.20;99.90
9760;DHT22;4919;48.792;9.202;2023-04-15T00:04:24;8.10;99.90
9760;DHT22;4919;48.792;9.202;2023-04-15T00:07:09;8.20;99.90
9760;DHT22;4919;48.792;9.202;2023-04-15T00:09:54;8.20;99.90
9760;DHT22;4919;48.792;9.202;2023-04-15T00:12:39;8.20;99.90
9760;DHT22;4919;48.792;9.202;2023-04-15T00:15:24;8.20;99.90
9760;DHT22;4919;48.792;9.202;2023-04-15T00:18:09;8.20;99.90
9760;DHT22;4919;48.792;9.202;2023-04-15T00:20:54;8.20;99.90
9760;DHT22;4919;48.792;9.202;2023-04-15T00:23:39;8.20;99.90
9760;DHT22;4919;48.792;9.202;2023-04-15T00:26:24;8.20;99.90
9760;DHT22;4919;48.792;9.202;2023-04-15T00:29:09;8.20;99.90
9760;DHT22;4919;48.792;9.202;2023-04-15T00:31:54;8.20;99.90
9760;DHT22;4919;48.792;9.202;2023-04-15T00:34:38;8.20;99.90
9760;DHT22;4919;48.792;9.202;2023-04-15T00:37:23;8.20;99.90
9760;DHT22;4919;48.792;9.202;2023-04-15T00:40:11;8.20;99.90
9760;DHT22;4919;48.792;9.202;2023-04-15T00:42:56;8.20;99.90
9760;DHT22;4919;48.792;9.202;2023-04-15T00:45:41;8.20;99.90
9760;DHT22;4919;48.792;9.202;2023-04-15T00:48:26;8.10;99.90
9760;DHT22;4919;48.792;9.202;2023-04-15T00:51:15;8.20;99.90
9760;DHT22;4919;48.792;9.202;2023-04-15T00:53:59;8.20;99.90
9760;DHT22;4919;48.792;9.202;2023-04-15T00:56:44;8.10;99.90
9760;DHT22;4919;48.792;9.202;2023-04-15T00:59:30;8.20;99.90
9760;DHT22;4919;48.792;9.202;2023-04-15T01:02:16;8.10;99.90
9760;DHT22;4919;48.792;9.202;2023-04-15T01:05:02;8.10;99.90
9760;DHT22;4919;48.792;9.202;2023-04-15T01:07:47;8.10;99.90
9760;DHT22;4919;48.792;9.202;2023-04-15T01:10:32;8.10;99.90
9760;DHT22;4919;48.792;9.202;2023-04-15T01:13:17;8.10;99.90
9760;DHT22;4919;48.792;9.202;2023-04-15T01:16:02;8.20;99.90
9760;DHT22;4919;48.792;9.202;2023-04-15T01:18:47;8.10;99.90
9760;DHT22;4919;48.792;9.202;2023-04-15T01:21:32;8.10;99.90
9760;DHT22;4919;48.792;9.202;2023-04-15T01:24:18;8.10;99.90
9760;DHT22;4919;48.792;9.202;2023-04-15T01:27:04;8.20;99.90
9760;DHT22;4919;48.792;9.202;2023-04-15T01:29:48;8.20;99.90
9760;DHT22;4919;48.792;9.202;2023-04-15T01:32:33;8.20;99.90
9760;DHT22;4919;48.792;9.202;2023-04-15T01:35:19;8.20;99.90
9760;DHT22;4919;48.792;9.202;2023-04-15T01:38:06;8.20;99.90
9760;DHT22;4919;48.792;9.202;2023-04-15T01:40:51;8.10;99.90
9760;DHT22;4919;48.792;9.202;2023-04-15T01:43:36;8.10;99.90
9760;DHT22;4919;48.792;9.202;2023-04-15T01:46:21;8.20;99.90
9760;DHT22;4919;48.792;9.202;2023-04-15T01:49:06;8.10;99.90
9760;DHT22;4919;48.792;9.202;2023-04-15T01:51:51;8.10;99.90
9760;DHT22;4919;48.792;9.202;2023-04-15T01:54:36;8.10;99.90
9760;DHT22;4919;48.792;9.202;2023-04-15T01:57:21;8.10;99.90
9760;DHT22;4919;48.792;9.202;2023-04-15T02:00:06;8.10;99.90
9760;DHT22;4919;48.792;9.202;2023-04-15T02:02:51;8.10;99.90
9760;DHT22;4919;48.792;9.202;2023-04-15T02:05:36;8.10;99.90
9760;DHT22;4919;48.792;9.202;2023-04-15T02:08:20;8.10;99.90
9760;DHT22;4919;48.792;9.202;2023-04-15T02:11:05;8.10;99.90
9760;DHT22;4919;48.792;9.202;2023-04-15T02:13:50;8.10;99.90
9760;DHT22;4919;48.792;9.202;2023-04-15T02:16:35;8.10;99.90
9760;DHT22;4919;48.792;9.202;2023-04-15T02:19:20;8.10;99.90
9760;DHT22;4919;48.792;9.202;2023-04-15T02:22:05;8.10;99.90
9760;DHT22;4919;48.792;9.202;2023-04-15T02:24:49;8.10;99.90
9760;DHT22;4919;48.792;9.202;2023-04-15T02:27:35;8.10;99.90
9760;DHT22;4919;48.792;9.202;2023-04-15T02:30:20;8.10;99.90
9760;DHT22;4919;48.792;9.202;2023-04-15T02:33:05;8.10;99.90
9760;DHT22;4919;48.792;9.202;2023-04-15T02:35:49;8.00;99.90
9760;DHT22;4919;48.792;9.202;2023-04-15T02:38:34;8.10;99.90
9760;DHT22;4919;48.792;9.202;2023-04-15T02:41:19;8.10;99.90
9760;DHT22;4919;48.792;9.202;2023-04-15T02:44:04;8.10;99.90
9760;DHT22;4919;48.792;9.202;2023-04-15T02:46:49;8.10;99.90
9760;DHT22;4919;48.792;9.202;2023-04-15T02:49:34;8.10;99.90
9760;DHT22;4919;48.792;9.202;2023-04-15T02:52:19;8.10;99.90
9760;DHT22;4919;48.792;9.202;2023-04-15T02:55:04;8.20;99.90
9760;DHT22;4919;48.792;9.202;2023-04-15T02:57:49;8.20;99.90
9760;DHT22;4919;48.792;9.202;2023-04-15T03:00:34;8.20;99.90
9760;DHT22;4919;48.792;9.202;2023-04-15T03:03:19;8.20;99.90
9760;DHT22;4919;48.792;9.202;2023-04-15T03:06:03;8.20;99.90
9760;DHT22;4919;48.792;9.202;2023-04-15T03:08:48;8.30;99.90
9760;DHT22;4919;48.792;9.202;2023-04-15T03:11:34;8.30;99.90
9760;DHT22;4919;48.792;9.202;2023-04-15T03:14:19;8.20;99.90
9760;DHT22;4919;48.792;9.202;2023-04-15T03:17:04;8.30;99.90
9760;DHT22;4919;48.792;9.202;2023-04-15T03:19:49;8.30;99.90
9760;DHT22;4919;48.792;9.202;2023-04-15T03:22:33;8.30;99.90
9760;DHT22;4919;48.792;9.202;2023-04-15T03:25:18;8.30;99.90
9760;DHT22;4919;48.792;9.202;2023-04-15T03:28:03;8.30;99.90
9760;DHT22;4919;48.792;9.202;2023-04-15T03:30:48;8.30;99.90
9760;DHT22;4919;48.792;9.202;2023-04-15T03:33:33;8.30;99.90
9760;DHT22;4919;48.792;9.202;2023-04-15T03:36:18;8.30;99.90
9760;DHT22;4919;48.792;9.202;2023-04-15T03:39:03;8.40;99.90
9760;DHT22;4919;48.792;9.202;2023-04-15T03:41:48;8.40;99.90
9760;DHT22;4919;48.792;9.202;2023-04-15T03:44:33;8.40;99.90
9760;DHT22;4919;48.792;9.202;2023-04-15T03:47:17;8.40;99.90
9760;DHT22;4919;48.792;9.202;2023-04-15T03:50:03;8.40;99.90
9760;DHT22;4919;48.792;9.202;2023-04-15T03:52:47;8.40;99.90
9760;DHT22;4919;48.792;9.202;2023-04-15T03:55:32;8.50;99.90
9760;DHT22;4919;48.792;9.202;2023-04-15T03:58:17;8.40;99.90
9760;DHT22;4919;48.792;9.202;2023-04-15T04:01:02;8.50;99.90
9760;DHT22;4919;48.792;9.202;2023-04-15T04:03:47;8.50;99.90
9760;DHT22;4919;48.792;9.202;2023-04-15T04:06:32;8.50;99.90
9760;DHT22;4919;48.792;9.202;2023-04-15T04:09:17;8.50;99.90
9760;DHT22;4919;48.792;9.202;2023-04-15T04:12:01;8.50;99.90
9760;DHT22;4919;48.792;9.202;2023-04-15T04:14:46;8.50;99.90
9760;DHT22;4919;48.792;9.202;2023-04-15T04:17:31;8.50;99.90
9760;DHT22;4919;48.792;9.202;2023-04-15T04:20:16;8.50;99.90
9760;DHT22;4919;48.792;9.202;2023-04-15T04:23:01;8.50;99.90
9760;DHT22;4919;48.792;9.202;2023-04-15T04:25:45;8.50;99.90
9760;DHT22;4919;48.792;9.202;2023-04-15T04:28:30;8.50;99.90
9760;DHT22;4919;48.792;9.202;2023-04-15T04:31:15;8.60;99.90
9760;DHT22;4919;48.792;9.202;2023-04-15T04:34:00;8.60;99.90
9760;DHT22;4919;48.792;9.202;2023-04-15T04:36:45;8.60;99.90
9760;DHT22;4919;48.792;9.202;2023-04-15T04:39:30;8.60;99.90
9760;DHT22;4919;48.792;9.202;2023-04-15T04:42:15;8.60;99.90
9760;DHT22;4919;48.792;9.202;2023-04-15T04:44:59;8.60;99.90
9760;DHT22;4919;48.792;9.202;2023-04-15T04:47:44;8.60;99.90
9760;DHT22;4919;48.792;9.202;2023-04-15T04:50:29;8.60;99.90
9760;DHT22;4919;48.792;9.202;2023-04-15T04:53:14;8.60;99.90
9760;DHT22;4919;48.792;9.202;2023-04-15T04:55:59;8.70;99.90
9760;DHT22;4919;48.792;9.202;2023-04-15T04:58:44;8.70;99.90
9760;DHT22;4919;48.792;9.202;2023-04-15T05:01:28;8.70;99.90
9760;DHT22;4919;48.792;9.202;2023-04-15T05:04:14;8.70;99.90
9760;DHT22;4919;48.792;9.202;2023-04-15T05:06:58;8.70;99.90
9760;DHT22;4919;48.792;9.202;2023-04-15T05:09:43;8.70;99.90
9760;DHT22;4919;48.792;9.202;2023-04-15T05:12:28;8.70;99.90
9760;DHT22;4919;48.792;9.202;2023-04-15T05:15:13;8.80;99.90
9760;DHT22;4919;48.792;9.202;2023-04-15T05:17:58;8.80;99.90
9760;DHT22;4919;48.792;9.202;2023-04-15T05:20:43;8.80;99.90
9760;DHT22;4919;48.792;9.202;2023-04-15T05:23:27;8.80;99.90
9760;DHT22;4919;48.792;9.202;2023-04-15T05:26:12;8.80;99.90
9760;DHT22;4919;48.792;9.202;2023-04-15T05:28:57;8.90;99.90
9760;DHT22;4919;48.792;9.202;2023-04-15T05:31:43;8.90;99.90
9760;DHT22;4919;48.792;9.202;2023-04-15T05:34:27;8.90;99.90
9760;DHT22;4919;48.792;9.202;2023-04-15T05:37:12;9.00;99.90
9760;DHT22;4919;48.792;9.202;2023-04-15T05:39:57;9.00;99.90
9760;DHT22;4919;48.792;9.202;2023-04-15T05:42:42;9.00;99.90
9760;DHT22;4919;48.792;9.202;2023-04-15T05:45:27;9.10;99.90
9760;DHT22;4919;48.792;9.202;2023-04-15T05:48:11;9.10;99.90
9760;DHT22;4919;48.792;9.202;2023-04-15T05:50:57;9.20;99.90
9760;DHT22;4919;48.792;9.202;2023-04-15T05:53:42;9.30;99.90
9760;DHT22;4919;48.792;9.202;2023-04-15T05:56:27;9.30;99.90
9760;DHT22;4919;48.792;9.202;2023-04-15T05:59:11;9.30;99.90
9760;DHT22;4919;48.792;9.202;2023-04-15T06:01:56;9.30;99.90
9760;DHT22;4919;48.792;9.202;2023-04-15T06:04:41;9.40;99.90
9760;DHT22;4919;48.792;9.202;2023-04-15T06:07:26;9.40;99.90
9760;DHT22;4919;48.792;9.202;2023-04-15T06:10:11;9.40;99.90
9760;DHT22;4919;48.792;9.202;2023-04-15T06:12:55;9.40;99.90
9760;DHT22;4919;48.792;9.202;2023-04-15T06:15:40;9.40;99.90
9760;DHT22;4919;48.792;9.202;2023-04-15T06:18:25;9.50;99.90
9760;DHT22;4919;48.792;9.202;2023-04-15T06:21:10;9.50;99.90
9760;DHT22;4919;48.792;9.202;2023-04-15T06:23:55;9.50;99.90
9760;DHT22;4919;48.792;9.202;2023-04-15T06:26:40;9.50;99.90
9760;DHT22;4919;48.792;9.202;2023-04-15T06:29:25;9.60;99.90
9760;DHT22;4919;48.792;9.202;2023-04-15T06:32:09;9.60;99.90
9760;DHT22;4919;48.792;9.202;2023-04-15T06:34:54;9.60;99.90
9760;DHT22;4919;48.792;9.202;2023-04-15T06:37:39;9.60;97.40
9760;DHT22;4919;48.792;9.202;2023-04-15T06:40:24;9.70;87.60
9760;DHT22;4919;48.792;9.202;2023-04-15T06:43:09;9.80;53.80
9760;DHT22;4919;48.792;9.202;2023-04-15T06:45:54;9.90;46.30
9760;DHT22;4919;48.792;9.202;2023-04-15T06:48:39;9.90;80.50
9760;DHT22;4919;48.792;9.202;2023-04-15T06:51:23;9.90;16.00
9760;DHT22;4919;48.792;9.202;2023-04-15T06:54:08;9.90;20.30
9760;DHT22;4919;48.792;9.202;2023-04-15T06:56:53;9.90;1.00
9760;DHT22;4919;48.792;9.202;2023-04-15T06:59:38;9.90;1.00
9760;DHT22;4919;48.792;9.202;2023-04-15T07:02:23;10.00;1.00
9760;DHT22;4919;48.792;9.202;2023-04-15T07:05:08;10.00;1.00
9760;DHT22;4919;48.792;9.202;2023-04-15T07:07:53;10.00;1.00
9760;DHT22;4919;48.792;9.202;2023-04-15T07:10:38;10.00;1.00
9760;DHT22;4919;48.792;9.202;2023-04-15T07:13:23;10.00;1.00
9760;DHT22;4919;48.792;9.202;2023-04-15T07:16:07;10.00;1.00
9760;DHT22;4919;48.792;9.202;2023-04-15T07:18:53;9.90;1.00
9760;DHT22;4919;48.792;9.202;2023-04-15T07:21:37;9.80;1.00
9760;DHT22;4919;48.792;9.202;2023-04-15T07:24:22;9.80;1.00
9760;DHT22;4919;48.792;9.202;2023-04-15T07:27:07;9.70;1.00
9760;DHT22;4919;48.792;9.202;2023-04-15T07:29:52;9.70;1.00
9760;DHT22;4919;48.792;9.202;2023-04-15T07:32:37;9.70;1.00
9760;DHT22;4919;48.792;9.202;2023-04-15T07:35:22;9.70;1.00
9760;DHT22;4919;48.792;9.202;2023-04-15T07:38:07;9.70;1.00
9760;DHT22;4919;48.792;9.202;2023-04-15T07:40:51;9.80;1.00
9760;DHT22;4919;48.792;9.202;2023-04-15T07:43:36;9.80;1.00
9760;DHT22;4919;48.792;9.202;2023-04-15T07:46:21;9.70;1.00
9760;DHT22;4919;48.792;9.202;2023-04-15T07:49:06;9.70;1.00
9760;DHT22;4919;48.792;9.202;2023-04-15T07:51:51;9.70;1.00
9760;DHT22;4919;48.792;9.202;2023-04-15T07:54:36;9.70;1.00
9760;DHT22;4919;48.792;9.202;2023-04-15T07:57:20;9.70;1.00
9760;DHT22;4919;48.792;9.202;2023-04-15T08:00:06;9.70;1.00
9760;DHT22;4919;48.792;9.202;2023-04-15T08:02:51;9.70;1.00
9760;DHT22;4919;48.792;9.202;2023-04-15T08:05:36;9.70;1.00
9760;DHT22;4919;48.792;9.202;2023-04-15T08:08:21;9.50;1.00
9760;DHT22;4919;48.792;9.202;2023-04-15T08:11:05;9.50;1.00
9760;DHT22;4919;48.792;9.202;2023-04-15T08:13:51;9.60;1.00
9760;DHT22;4919;48.792;9.202;2023-04-15T08:16:36;9.60;1.00
9760;DHT22;4919;48.792;9.202;2023-04-15T08:19:21;9.60;1.00
9760;DHT22;4919;48.792;9.202;2023-04-15T08:22:06;9.60;1.00
9760;DHT22;4919;48.792;9.202;2023-04-15T08:24:51;9.60;1.00
9760;DHT22;4919;48.792;9.202;2023-04-15T08:27:36;9.70;1.00
9760;DHT22;4919;48.792;9.202;2023-04-15T08:30:20;9.60;1.00
9760;DHT22;4919;48.792;9.202;2023-04-15T08:33:05;9.60;1.00
9760;DHT22;4919;48.792;9.202;2023-04-15T08:35:50;9.70;1.00
9760;DHT22;4919;48.792;9.202;2023-04-15T08:38:35;9.70;1.00
9760;DHT22;4919;48.792;9.202;2023-04-15T08:41:22;9.70;1.00
9760;DHT22;4919;48.792;9.202;2023-04-15T08:44:08;9.70;1.00
9760;DHT22;4919;48.792;9.202;2023-04-15T08:46:53;9.70;1.00
9760;DHT22;4919;48.792;9.202;2023-04-15T08:49:39;9.70;1.00
9760;DHT22;4919;48.792;9.202;2023-04-15T08:52:30;9.70;1.00
9760;DHT22;4919;48.792;9.202;2023-04-15T08:55:15;9.70;1.00
9760;DHT22;4919;48.792;9.202;2023-04-15T08:58:01;9.70;1.00
9760;DHT22;4919;48.792;9.202;2023-04-15T09:00:46;9.70;1.00
9760;DHT22;4919;48.792;9.202;2023-04-15T09:03:31;9.70;1.00
9760;DHT22;4919;48.792;9.202;2023-04-15T09:06:17;9.80;1.00
9760;DHT22;4919;48.792;9.202;2023-04-15T09:09:01;9.70;1.00
9760;DHT22;4919;48.792;9.202;2023-04-15T09:11:46;9.80;1.00
9760;DHT22;4919;48.792;9.202;2023-04-15T09:14:31;9.90;1.00
9760;DHT22;4919;48.792;9.202;2023-04-15T09:17:19;9.90;1.00
9760;DHT22;4919;48.792;9.202;2023-04-15T09:20:07;9.90;1.00
9760;DHT22;4919;48.792;9.202;2023-04-15T09:22:52;10.00;1.00
9760;DHT22;4919;48.792;9.202;2023-04-15T09:25:39;10.00;1.00
9760;DHT22;4919;48.792;9.202;2023-04-15T09:28:24;9.90;1.00
9760;DHT22;4919;48.792;9.202;2023-04-15T09:31:09;10.00;1.00
9760;DHT22;4919;48.792;9.202;2023-04-15T09:33:55;10.00;1.00
9760;DHT22;4919;48.792;9.202;2023-04-15T09:39:47;9.90;1.00
9760;DHT22;4919;48.792;9.202;2023-04-15T09:42:32;9.90;1.00
9760;DHT22;4919;48.792;9.202;2023-04-15T09:45:17;9.80;1.00
9760;DHT22;4919;48.792;9.202;2023-04-15T09:51:01;9.70;1.00
9760;DHT22;4919;48.792;9.202;2023-04-15T09:53:46;9.70;1.00
9760;DHT22;4919;48.792;9.202;2023-04-15T09:56:38;9.70;1.00
9760;DHT22;4919;48.792;9.202;2023-04-15T09:59:23;9.80;1.00
9760;DHT22;4919;48.792;9.202;2023-04-15T10:02:08;9.70;1.00
9760;DHT22;4919;48.792;9.202;2023-04-15T10:04:53;9.70;1.00
9760;DHT22;4919;48.792;9.202;2023-04-15T10:07:38;9.70;1.00
9760;DHT22;4919;48.792;9.202;2023-04-15T10:10:23;9.80;1.00
9760;DHT22;4919;48.792;9.202;2023-04-15T10:13:08;9.70;13.30
9760;DHT22;4919;48.792;9.202;2023-04-15T10:15:59;9.70;40.20
9760;DHT22;4919;48.792;9.202;2023-04-15T10:18:46;9.80;15.60
9760;DHT22;4919;48.792;9.202;2023-04-15T10:21:32;9.80;27.70
9760;DHT22;4919;48.792;9.202;2023-04-15T10:24:17;9.80;20.70
9760;DHT22;4919;48.792;9.202;2023-04-15T10:27:02;9.80;32.20
9760;DHT22;4919;48.792;9.202;2023-04-15T10:29:49;9.90;47.60
9760;DHT22;4919;48.792;9.202;2023-04-15T10:32:35;9.90;54.50
9760;DHT22;4919;48.792;9.202;2023-04-15T10:35:20;9.90;62.40
9760;DHT22;4919;48.792;9.202;2023-04-15T10:41:23;9.90;99.90
9760;DHT22;4919;48.792;9.202;2023-04-15T10:44:08;9.90;98.80
9760;DHT22;4919;48.792;9.202;2023-04-15T10:46:53;9.90;99.90
9760;DHT22;4919;48.792;9.202;2023-04-15T10:49:49;9.90;99.90
9760;DHT22;4919;48.792;9.202;2023-04-15T10:52:34;9.90;99.90
9760;DHT22;4919;48.792;9.202;2023-04-15T10:55:25;9.90;99.90
9760;DHT22;4919;48.792;9.202;2023-04-15T10:58:10;9.90;99.90
9760;DHT22;4919;48.792;9.202;2023-04-15T11:00:55;9.90;99.90
9760;DHT22;4919;48.792;9.202;2023-04-15T11:03:42;9.90;99.90
9760;DHT22;4919;48.792;9.202;2023-04-15T11:06:43;9.90;99.90
9760;DHT22;4919;48.792;9.202;2023-04-15T11:09:31;9.90;99.90
9760;DHT22;4919;48.792;9.202;2023-04-15T11:12:18;9.90;99.90
9760;DHT22;4919;48.792;9.202;2023-04-15T11:15:26;9.90;99.90
9760;DHT22;4919;48.792;9.202;2023-04-15T11:18:24;9.90;99.90
9760;DHT22;4919;48.792;9.202;2023-04-15T11:21:09;9.90;99.90
9760;DHT22;4919;48.792;9.202;2023-04-15T11:23:54;9.90;99.90
9760;DHT22;4919;48.792;9.202;2023-04-15T11:26:39;9.90;99.90
9760;DHT22;4919;48.792;9.202;2023-04-15T11:29:30;9.90;99.90
9760;DHT22;4919;48.792;9.202;2023-04-15T11:32:15;9.90;99.90
9760;DHT22;4919;48.792;9.202;2023-04-15T11:35:00;9.90;99.90
9760;DHT22;4919;48.792;9.202;2023-04-15T11:37:46;9.90;99.90
9760;DHT22;4919;48.792;9.202;2023-04-15T11:40:31;9.90;99.90
9760;DHT22;4919;48.792;9.202;2023-04-15T11:43:21;9.90;99.90
9760;DHT22;4919;48.792;9.202;2023-04-15T11:46:06;9.90;99.90
9760;DHT22;4919;48.792;9.202;2023-04-15T11:48:51;9.90;99.90
9760;DHT22;4919;48.792;9.202;2023-04-15T11:51:36;9.90;99.90
9760;DHT22;4919;48.792;9.202;2023-04-15T11:54:20;10.00;99.90
9760;DHT22;4919;48.792;9.202;2023-04-15T11:57:06;10.00;99.90
9760;DHT22;4919;48.792;9.202;2023-04-15T11:59:54;10.00;99.90
9760;DHT22;4919;48.792;9.202;2023-04-15T12:02:38;10.00;99.90
9760;DHT22;4919;48.792;9.202;2023-04-15T12:05:23;10.10;99.90
9760;DHT22;4919;48.792;9.202;2023-04-15T12:08:08;10.10;99.90
9760;DHT22;4919;48.792;9.202;2023-04-15T12:10:58;10.10;99.90
9760;DHT22;4919;48.792;9.202;2023-04-15T12:13:49;10.10;99.90
9760;DHT22;4919;48.792;9.202;2023-04-15T12:16:36;10.10;99.90
9760;DHT22;4919;48.792;9.202;2023-04-15T12:22:12;10.20;99.90
9760;DHT22;4919;48.792;9.202;2023-04-15T12:24:57;10.20;99.90
9760;DHT22;4919;48.792;9.202;2023-04-15T12:27:50;10.30;99.90
9760;DHT22;4919;48.792;9.202;2023-04-15T12:30:35;10.30;99.90
9760;DHT22;4919;48.792;9.202;2023-04-15T12:33:20;10.40;99.90
9760;DHT22;4919;48.792;9.202;2023-04-15T12:36:05;10.40;99.90
9760;DHT22;4919;48.792;9.202;2023-04-15T12:38:50;10.40;99.90
9760;DHT22;4919;48.792;9.202;2023-04-15T12:41:35;10.30;99.90
9760;DHT22;4919;48.792;9.202;2023-04-15T12:44:22;10.30;99.90
9760;DHT22;4919;48.792;9.202;2023-04-15T12:47:08;10.30;99.90
9760;DHT22;4919;48.792;9.202;2023-04-15T12:49:53;10.30;99.90
9760;DHT22;4919;48.792;9.202;2023-04-15T12:52:38;10.30;99.90
9760;DHT22;4919;48.792;9.202;2023-04-15T12:55:23;10.30;99.90
9760;DHT22;4919;48.792;9.202;2023-04-15T12:58:08;10.40;99.90
9760;DHT22;4919;48.792;9.202;2023-04-15T13:00:53;10.30;99.90
9760;DHT22;4919;48.792;9.202;2023-04-15T13:03:38;10.30;99.90
9760;DHT22;4919;48.792;9.202;2023-04-15T13:06:23;10.30;99.90
9760;DHT22;4919;48.792;9.202;2023-04-15T13:09:08;10.30;99.90
9760;DHT22;4919;48.792;9.202;2023-04-15T13:11:53;10.30;99.90
9760;DHT22;4919;48.792;9.202;2023-04-15T13:14:38;10.40;99.90
9760;DHT22;4919;48.792;9.202;2023-04-15T13:17:23;10.40;99.90
9760;DHT22;4919;48.792;9.202;2023-04-15T13:20:08;10.40;99.90
9760;DHT22;4919;48.792;9.202;2023-04-15T13:22:52;10.40;99.90
9760;DHT22;4919;48.792;9.202;2023-04-15T13:25:37;10.40;99.90
9760;DHT22;4919;48.792;9.202;2023-04-15T13:28:22;10.40;99.90
9760;DHT22;4919;48.792;9.202;2023-04-15T13:31:07;10.40;99.90
9760;DHT22;4919;48.792;9.202;2023-04-15T13:33:52;10.40;99.90
9760;DHT22;4919;48.792;9.202;2023-04-15T13:36:37;10.40;99.90
9760;DHT22;4919;48.792;9.202;2023-04-15T13:39:21;10.40;99.90
9760;DHT22;4919;48.792;9.202;2023-04-15T13:42:06;10.50;99.90
9760;DHT22;4919;48.792;9.202;2023-04-15T13:44:51;10.60;99.90
9760;DHT22;4919;48.792;9.202;2023-04-15T13:47:36;10.50;99.90
9760;DHT22;4919;48.792;9.202;2023-04-15T13:50:21;10.50;99.90
9760;DHT22;4919;48.792;9.202;2023-04-15T13:53:06;10.50;99.90
9760;DHT22;4919;48.792;9.202;2023-04-15T13:55:51;10.50;99.90
9760;DHT22;4919;48.792;9.202;2023-04-15T13:58:36;10.40;99.90
9760;DHT22;4919;48.792;9.202;2023-04-15T14:01:21;10.40;99.90
9760;DHT22;4919;48.792;9.202;2023-04-15T14:04:06;10.40;99.90
9760;DHT22;4919;48.792;9.202;2023-04-15T14:06:51;10.40;99.90
9760;DHT22;4919;48.792;9.202;2023-04-15T14:09:36;10.40;99.90
9760;DHT22;4919;48.792;9.202;2023-04-15T14:12:21;10.40;99.90
9760;DHT22;4919;48.792;9.202;2023-04-15T14:15:06;10.50;99.90
9760;DHT22;4919;48.792;9.202;2023-04-15T14:17:51;10.60;99.90
9760;DHT22;4919;48.792;9.202;2023-04-15T14:20:36;10.50;99.90
9760;DHT22;4919;48.792;9.202;2023-04-15T14:23:21;10.60;99.90
9760;DHT22;4919;48.792;9.202;2023-04-15T14:26:07;10.60;99.90
9760;DHT22;4919;48.792;9.202;2023-04-15T14:28:52;10.60;99.90
9760;DHT22;4919;48.792;9.202;2023-04-15T14:31:37;10.60;99.90
9760;DHT22;4919;48.792;9.202;2023-04-15T14:34:22;10.50;99.90
9760;DHT22;4919;48.792;9.202;2023-04-15T14:37:06;10.50;99.90
9760;DHT22;4919;48.792;9.202;2023-04-15T14:39:51;10.50;99.90
9760;DHT22;4919;48.792;9.202;2023-04-15T14:42:36;10.50;99.90
9760;DHT22;4919;48.792;9.202;2023-04-15T14:45:21;10.60;99.90
9760;DHT22;4919;48.792;9.202;2023-04-15T14:48:06;10.60;99.90
9760;DHT22;4919;48.792;9.202;2023-04-15T14:50:51;10.60;99.90
9760;DHT22;4919;48.792;9.202;2023-04-15T14:53:36;10.50;99.90
9760;DHT22;4919;48.792;9.202;2023-04-15T14:56:21;10.50;99.90
9760;DHT22;4919;48.792;9.202;2023-04-15T14:59:06;10.50;99.90
9760;DHT22;4919;48.792;9.202;2023-04-15T15:01:52;10.50;99.90
9760;DHT22;4919;48.792;9.202;2023-04-15T15:04:36;10.50;99.90
9760;DHT22;4919;48.792;9.202;2023-04-15T15:07:22;10.50;99.90
9760;DHT22;4919;48.792;9.202;2023-04-15T15:10:07;10.50;99.90
9760;DHT22;4919;48.792;9.202;2023-04-15T15:12:52;10.50;99.90
9760;DHT22;4919;48.792;9.202;2023-04-15T15:15:37;10.50;99.90
9760;DHT22;4919;48.792;9.202;2023-04-15T15:18:22;10.50;99.90
9760;DHT22;4919;48.792;9.202;2023-04-15T15:21:07;10.50;99.90
9760;DHT22;4919;48.792;9.202;2023-04-15T15:23:51;10.50;99.90
9760;DHT22;4919;48.792;9.202;2023-04-15T15:26:36;10.50;99.90
9760;DHT22;4919;48.792;9.202;2023-04-15T15:29:22;10.50;99.90
9760;DHT22;4919;48.792;9.202;2023-04-15T15:32:07;10.50;99.90
9760;DHT22;4919;48.792;9.202;2023-04-15T15:34:51;10.50;99.90
9760;DHT22;4919;48.792;9.202;2023-04-15T15:37:37;10.50;99.90
9760;DHT22;4919;48.792;9.202;2023-04-15T15:40:22;10.50;99.90
9760;DHT22;4919;48.792;9.202;2023-04-15T15:43:07;10.50;99.90
9760;DHT22;4919;48.792;9.202;2023-04-15T15:45:52;10.50;99.90
9760;DHT22;4919;48.792;9.202;2023-04-15T15:48:37;10.50;99.90
9760;DHT22;4919;48.792;9.202;2023-04-15T15:51:22;10.40;99.90
9760;DHT22;4919;48.792;9.202;2023-04-15T15:54:07;10.50;99.90
9760;DHT22;4919;48.792;9.202;2023-04-15T15:56:52;10.40;99.90
9760;DHT22;4919;48.792;9.202;2023-04-15T15:59:36;10.40;99.90
9760;DHT22;4919;48.792;9.202;2023-04-15T16:02:21;10.50;99.90
9760;DHT22;4919;48.792;9.202;2023-04-15T16:05:07;10.40;99.90
9760;DHT22;4919;48.792;9.202;2023-04-15T16:07:51;10.40;99.90
9760;DHT22;4919;48.792;9.202;2023-04-15T16:10:37;10.40;99.90
9760;DHT22;4919;48.792;9.202;2023-04-15T16:13:21;10.40;99.90
9760;DHT22;4919;48.792;9.202;2023-04-15T16:16:06;10.40;99.90
9760;DHT22;4919;48.792;9.202;2023-04-15T16:18:51;10.40;99.90
9760;DHT22;4919;48.792;9.202;2023-04-15T16:21:36;10.40;99.90
9760;DHT22;4919;48.792;9.202;2023-04-15T16:24:21;10.40;99.90
9760;DHT22;4919;48.792;9.202;2023-04-15T16:27:06;10.40;99.90
9760;DHT22;4919;48.792;9.202;2023-04-15T16:29:51;10.40;99.90
9760;DHT22;4919;48.792;9.202;2023-04-15T16:32:36;10.40;99.90
9760;DHT22;4919;48.792;9.202;2023-04-15T16:35:21;10.40;99.90
9760;DHT22;4919;48.792;9.202;2023-04-15T16:38:06;10.40;99.90
9760;DHT22;4919;48.792;9.202;2023-04-15T16:40:50;10.40;99.90
9760;DHT22;4919;48.792;9.202;2023-04-15T16:43:35;10.30;99.90
9760;DHT22;4919;48.792;9.202;2023-04-15T16:46:20;10.30;99.90
9760;DHT22;4919;48.792;9.202;2023-04-15T16:49:05;10.30;99.90
9760;DHT22;4919;48.792;9.202;2023-04-15T16:51:51;10.30;99.90
9760;DHT22;4919;48.792;9.202;2023-04-15T16:54:35;10.30;99.90
9760;DHT22;4919;48.792;9.202;2023-04-15T16:57:20;10.40;99.90
9760;DHT22;4919;48.792;9.202;2023-04-15T17:00:06;10.30;99.90
9760;DHT22;4919;48.792;9.202;2023-04-15T17:02:50;10.30;99.90
9760;DHT22;4919;48.792;9.202;2023-04-15T17:05:36;10.30;99.90
9760;DHT22;4919;48.792;9.202;2023-04-15T17:08:21;10.40;99.90
9760;DHT22;4919;48.792;9.202;2023-04-15T17:11:06;10.40;99.90
9760;DHT22;4919;48.792;9.202;2023-04-15T17:13:51;10.40;99.90
9760;DHT22;4919;48.792;9.202;2023-04-15T17:16:36;10.30;99.90
9760;DHT22;4919;48.792;9.202;2023-04-15T17:19:21;10.30;99.90
9760;DHT22;4919;48.792;9.202;2023-04-15T17:22:05;10.30;99.90
9760;DHT22;4919;48.792;9.202;2023-04-15T17:24:50;10.30;99.90
9760;DHT22;4919;48.792;9.202;2023-04-15T17:27:35;10.30;99.90
9760;DHT22;4919;48.792;9.202;2023-04-15T17:30:22;10.30;99.90
9760;DHT22;4919;48.792;9.202;2023-04-15T17:33:06;10.30;99.90
9760;DHT22;4919;48.792;9.202;2023-04-15T17:35:51;10.30;99.90
9760;DHT22;4919;48.792;9.202;2023-04-15T17:38:36;10.30;99.90
9760;DHT22;4919;48.792;9.202;2023-04-15T17:41:21;10.20;99.90
9760;DHT22;4919;48.792;9.202;2023-04-15T17:44:06;10.20;99.90
9760;DHT22;4919;48.792;9.202;2023-04-15T17:46:51;10.20;99.90
9760;DHT22;4919;48.792;9.202;2023-04-15T17:49:36;10.20;99.90
9760;DHT22;4919;48.792;9.202;2023-04-15T17:52:21;10.20;99.90
9760;DHT22;4919;48.792;9.202;2023-04-15T17:55:06;10.20;99.90
9760;DHT22;4919;48.792;9.202;2023-04-15T17:57:51;10.20;99.90
9760;DHT22;4919;48.792;9.202;2023-04-15T18:00:36;10.20;99.90
9760;DHT22;4919;48.792;9.202;2023-04-15T18:03:21;10.20;99.90
9760;DHT22;4919;48.792;9.202;2023-04-15T18:06:06;10.20;99.90
9760;DHT22;4919;48.792;9.202;2023-04-15T18:08:51;10.20;99.90
9760;DHT22;4919;48.792;9.202;2023-04-15T18:11:36;10.10;99.90
9760;DHT22;4919;48.792;9.202;2023-04-15T18:14:20;10.10;99.90
9760;DHT22;4919;48.792;9.202;2023-04-15T18:17:06;10.10;99.90
9760;DHT22;4919;48.792;9.202;2023-04-15T18:19:51;10.10;99.90
9760;DHT22;4919;48.792;9.202;2023-04-15T18:22:36;10.10;99.90
9760;DHT22;4919;48.792;9.202;2023-04-15T18:25:20;10.10;99.90